createdAt,value
2022-10-29T00:01:57.560Z,99769.31
2022-10-29T00:04:26.986Z,99759.03
2022-10-29T00:06:57.469Z,99756.56
2022-10-29T00:09:26.174Z,99753.16
2022-10-29T00:11:54.338Z,99762.63
2022-10-29T00:14:22.623Z,99764.59
2022-10-29T00:16:51.503Z,99766.41
2022-10-29T00:19:21.528Z,99762.28
2022-10-29T00:21:52.437Z,99756.09
2022-10-29T00:24:20.621Z,99756.88
2022-10-29T00:26:49.048Z,99768.94
2022-10-29T00:29:17.357Z,99764.88
2022-10-29T00:31:45.801Z,99760.44
2022-10-29T00:34:14.029Z,99765.50
2022-10-29T00:36:43.979Z,99763.13
2022-10-29T00:39:16.398Z,99758.31
2022-10-29T00:41:45.786Z,99759.72
2022-10-29T00:44:36.310Z,99767.84
2022-10-29T00:47:13.471Z,99760.69
2022-10-29T00:49:43.849Z,99768.97
2022-10-29T00:52:17.085Z,99773.47
2022-10-29T00:54:50.135Z,99776.13
2022-10-29T00:57:24.060Z,99778.66
2022-10-29T00:59:52.820Z,99768.34
2022-10-29T01:02:25.216Z,99769.16
2022-10-29T01:04:55.443Z,99765.91
2022-10-29T01:07:26.182Z,99762.78
2022-10-29T01:09:54.856Z,99776.13
2022-10-29T01:12:48.978Z,99776.47
2022-10-29T01:15:26.505Z,99777.03
2022-10-29T01:18:10.185Z,99767.66
2022-10-29T01:21:09.786Z,99770.91
2022-10-29T01:24:11.483Z,99764.19
2022-10-29T01:27:20.795Z,99762.59
2022-10-29T01:30:05.373Z,99770.19
2022-10-29T01:32:46.169Z,99774.44
2022-10-29T01:35:21.845Z,99769.41
2022-10-29T01:37:58.000Z,99770.28
2022-10-29T01:40:29.549Z,99780.31
2022-10-29T01:43:06.350Z,99772.03
2022-10-29T01:45:39.284Z,99775.75
2022-10-29T01:48:15.466Z,99770.75
2022-10-29T01:50:47.478Z,99768.28
2022-10-29T01:53:15.761Z,99773.72
2022-10-29T01:55:44.596Z,99786.34
2022-10-29T01:58:14.797Z,99790.03
2022-10-29T02:00:52.284Z,99784.81
2022-10-29T02:03:39.118Z,99783.53
2022-10-29T02:06:16.414Z,99777.03
2022-10-29T02:08:54.653Z,99777.56
2022-10-29T02:11:27.523Z,99771.72
2022-10-29T02:14:00.852Z,99780.00
2022-10-29T02:16:31.791Z,99778.53
2022-10-29T02:19:02.977Z,99777.56
2022-10-29T02:21:31.365Z,99778.41
2022-10-29T02:24:02.447Z,99784.50
2022-10-29T02:26:30.928Z,99773.72
2022-10-29T02:28:59.462Z,99764.69
2022-10-29T02:31:28.650Z,99762.03
2022-10-29T02:33:57.061Z,99759.34
2022-10-29T02:36:27.008Z,99756.81
2022-10-29T02:38:55.731Z,99745.59
2022-10-29T02:41:24.664Z,99744.88
2022-10-29T02:43:56.702Z,99745.50
2022-10-29T02:46:27.807Z,99748.56
2022-10-29T02:48:58.859Z,99746.41
2022-10-29T02:51:29.388Z,99744.09
2022-10-29T02:53:58.156Z,99745.03
2022-10-29T02:56:26.624Z,99738.22
2022-10-29T02:58:55.085Z,99733.63
2022-10-29T03:01:23.316Z,99737.00
2022-10-29T03:03:51.681Z,99728.72
2022-10-29T03:06:22.011Z,99727.44
2022-10-29T03:08:52.004Z,99728.63
2022-10-29T03:11:20.350Z,99724.81
2022-10-29T03:13:49.052Z,99729.69
2022-10-29T03:16:17.711Z,99722.97
2022-10-29T03:18:46.309Z,99740.00
2022-10-29T03:21:16.073Z,99741.59
2022-10-29T03:23:44.485Z,99738.44
2022-10-29T03:26:14.936Z,99737.25
2022-10-29T03:31:14.780Z,99744.59
2022-10-29T03:33:43.342Z,99738.75
2022-10-29T03:36:12.170Z,99739.91
2022-10-29T03:38:41.424Z,99739.28
2022-10-29T03:41:11.137Z,99739.34
2022-10-29T03:43:42.971Z,99744.59
2022-10-29T03:46:13.283Z,99742.78
2022-10-29T03:48:42.244Z,99749.19
2022-10-29T03:51:12.138Z,99748.66
2022-10-29T03:53:44.516Z,99740.84
2022-10-29T03:56:12.851Z,99747.59
2022-10-29T03:58:42.773Z,99746.47
2022-10-29T04:01:12.717Z,99750.53
2022-10-29T04:03:42.637Z,99751.28
2022-10-29T04:06:15.437Z,99756.69
2022-10-29T04:08:44.136Z,99760.97
2022-10-29T04:11:13.735Z,99762.56
2022-10-29T04:13:44.120Z,99760.13
2022-10-29T04:16:13.128Z,99759.22
2022-10-29T04:18:41.574Z,99759.34
2022-10-29T04:29:38.491Z,99772.09
2022-10-29T04:32:06.898Z,99769.91
2022-10-29T04:34:35.274Z,99772.19
2022-10-29T04:37:03.609Z,99768.41
2022-10-29T04:39:32.204Z,99769.59
2022-10-29T04:42:00.942Z,99772.19
2022-10-29T04:44:29.379Z,99772.28
2022-10-29T04:46:58.958Z,99773.91
2022-10-29T04:49:27.609Z,99770.00
2022-10-29T04:51:57.001Z,99759.47
2022-10-29T04:54:25.432Z,99754.88
2022-10-29T04:56:53.979Z,99742.94
2022-10-29T04:59:22.616Z,99742.28
2022-10-29T05:01:50.721Z,99733.94
2022-10-29T05:04:20.550Z,99737.94
2022-10-29T05:06:50.105Z,99749.75
2022-10-29T05:09:18.548Z,99743.81
2022-10-29T05:11:47.262Z,99749.50
2022-10-29T05:14:15.668Z,99746.63
2022-10-29T05:16:45.408Z,99740.78
2022-10-29T05:19:15.565Z,99743.31
2022-10-29T05:21:45.631Z,99745.25
2022-10-29T05:24:14.118Z,99731.88
2022-10-29T05:26:44.289Z,99738.25
2022-10-29T05:29:12.800Z,99745.47
2022-10-29T05:31:43.821Z,99747.63
2022-10-29T05:34:12.533Z,99743.44
2022-10-29T05:36:40.947Z,99746.00
2022-10-29T05:39:11.172Z,99747.75
2022-10-29T05:41:39.683Z,99756.16
2022-10-29T05:44:08.212Z,99755.34
2022-10-29T05:46:36.681Z,99751.75
2022-10-29T05:49:05.059Z,99746.31
2022-10-29T05:51:35.833Z,99750.03
2022-10-29T05:54:06.703Z,99753.72
2022-10-29T05:56:38.186Z,99760.44
2022-10-29T05:59:07.176Z,99751.56
2022-10-29T06:01:35.400Z,99749.84
2022-10-29T06:04:04.025Z,99743.09
2022-10-29T06:06:32.599Z,99741.34
2022-10-29T06:09:01.292Z,99734.16
2022-10-29T06:11:29.708Z,99730.00
2022-10-29T06:13:59.833Z,99735.13
2022-10-29T06:16:28.906Z,99741.75
2022-10-29T06:18:57.491Z,99738.34
2022-10-29T06:21:26.721Z,99729.50
2022-10-29T06:23:56.053Z,99735.59
2022-10-29T06:26:24.498Z,99738.97
2022-10-29T06:28:52.681Z,99742.09
2022-10-29T06:31:22.463Z,99744.19
2022-10-29T06:33:50.880Z,99745.50
2022-10-29T06:36:20.897Z,99736.94
2022-10-29T06:38:52.555Z,99738.97
2022-10-29T06:41:25.503Z,99739.50
2022-10-29T06:43:55.075Z,99741.97
2022-10-29T06:46:26.316Z,99740.28
2022-10-29T06:48:54.680Z,99747.81
2022-10-29T06:53:58.026Z,99749.13
2022-10-29T06:56:26.619Z,99747.53
2022-10-29T06:58:55.174Z,99740.81
2022-10-29T07:01:30.770Z,99748.03
2022-10-29T07:04:00.642Z,99736.97
2022-10-29T07:06:33.632Z,99741.31
2022-10-29T07:09:02.170Z,99736.84
2022-10-29T07:11:31.015Z,99743.47
2022-10-29T07:13:59.423Z,99746.00
2022-10-29T07:16:29.918Z,99728.84
2022-10-29T07:18:58.337Z,99747.09
2022-10-29T07:21:28.224Z,99735.69
2022-10-29T07:23:59.058Z,99738.59
2022-10-29T07:26:28.718Z,99733.16
2022-10-29T07:28:58.702Z,99750.63
2022-10-29T07:31:28.521Z,99739.44
2022-10-29T07:33:57.360Z,99736.13
2022-10-29T07:36:25.970Z,99738.44
2022-10-29T07:38:54.662Z,99752.53
2022-10-29T07:41:23.480Z,99752.84
2022-10-29T07:43:52.886Z,99763.41
2022-10-29T07:46:21.881Z,99753.78
2022-10-29T07:48:52.716Z,99761.06
2022-10-29T07:51:21.284Z,99757.22
2022-10-29T07:53:49.690Z,99760.00
2022-10-29T07:56:18.177Z,99758.50
2022-10-29T07:58:46.632Z,99750.34
2022-10-29T08:01:15.532Z,99754.22
2022-10-29T08:03:44.342Z,99755.91
2022-10-29T08:06:17.133Z,99754.78
2022-10-29T08:08:45.496Z,99745.69
2022-10-29T08:11:14.346Z,99747.13
2022-10-29T08:13:42.593Z,99748.09
2022-10-29T08:16:11.087Z,99734.06
2022-10-29T08:18:39.513Z,99738.13
2022-10-29T08:21:08.607Z,99724.56
2022-10-29T08:23:38.416Z,99733.59
2022-10-29T08:26:07.024Z,99735.31
2022-10-29T08:28:35.974Z,99737.91
2022-10-29T08:31:04.946Z,99737.59
2022-10-29T08:33:33.245Z,99735.94
2022-10-29T08:36:01.734Z,99732.28
2022-10-29T08:38:30.414Z,99731.06
2022-10-29T08:41:19.996Z,99733.00
2022-10-29T08:44:07.897Z,99734.16
2022-10-29T08:46:48.868Z,99735.44
2022-10-29T08:49:21.257Z,99734.88
2022-10-29T08:51:55.723Z,99737.47
2022-10-29T08:54:30.992Z,99747.09
2022-10-29T08:57:08.259Z,99743.53
2022-10-29T08:59:45.114Z,99748.44
2022-10-29T09:02:22.013Z,99738.34
2022-10-29T09:04:51.469Z,99745.66
2022-10-29T09:07:41.853Z,99747.78
2022-10-29T09:10:19.339Z,99742.06
2022-10-29T09:13:02.892Z,99739.44
2022-10-29T09:15:41.746Z,99731.88
2022-10-29T09:18:37.257Z,99721.09
2022-10-29T09:21:13.731Z,99721.56
2022-10-29T09:24:00.387Z,99719.53
2022-10-29T09:26:34.843Z,99711.38
2022-10-29T09:29:31.340Z,99712.47
2022-10-29T09:32:04.155Z,99709.19
2022-10-29T09:34:44.274Z,99702.13
2022-10-29T09:37:17.404Z,99698.84
2022-10-29T09:39:50.334Z,99687.94
2022-10-29T09:42:25.957Z,99680.38
2022-10-29T09:44:58.442Z,99680.34
2022-10-29T09:47:38.584Z,99684.81
2022-10-29T09:50:16.981Z,99681.81
2022-10-29T09:52:46.671Z,99683.59
2022-10-29T09:55:22.255Z,99685.91
2022-10-29T09:57:51.273Z,99682.00
2022-10-29T10:00:24.602Z,99670.78
2022-10-29T10:02:59.311Z,99676.81
2022-10-29T10:05:29.857Z,99665.91
2022-10-29T10:08:12.630Z,99673.88
2022-10-29T10:11:05.037Z,99662.75
2022-10-29T10:13:36.015Z,99666.56
2022-10-29T10:16:07.515Z,99656.75
2022-10-29T10:18:42.215Z,99657.47
2022-10-29T10:21:13.348Z,99663.59
2022-10-29T10:23:44.922Z,99655.28
2022-10-29T10:26:34.772Z,99657.09
2022-10-29T10:29:11.212Z,99652.72
2022-10-29T10:31:41.597Z,99649.00
2022-10-29T10:34:15.788Z,99650.41
2022-10-29T10:36:46.116Z,99659.38
2022-10-29T10:39:25.710Z,99658.66
2022-10-29T10:41:55.043Z,99660.28
2022-10-29T10:44:25.409Z,99652.63
2022-10-29T10:46:58.234Z,99652.75
2022-10-29T10:49:33.406Z,99652.53
2022-10-29T10:52:06.883Z,99643.28
2022-10-29T10:54:42.180Z,99643.50
2022-10-29T10:57:23.967Z,99648.25
2022-10-29T11:00:01.371Z,99648.25
2022-10-29T11:02:39.603Z,99653.09
2022-10-29T11:05:17.468Z,99647.38
2022-10-29T11:07:50.746Z,99640.19
2022-10-29T11:10:22.310Z,99619.09
2022-10-29T11:13:00.828Z,99636.59
2022-10-29T11:15:39.228Z,99627.28
2022-10-29T11:21:00.956Z,99617.94
2022-10-29T11:23:40.279Z,99621.91
2022-10-29T11:26:13.191Z,99626.69
2022-10-29T11:28:49.592Z,99627.38
2022-10-29T11:31:26.130Z,99617.97
2022-10-29T11:34:05.010Z,99613.56
2022-10-29T11:36:43.227Z,99611.28
2022-10-29T11:39:17.876Z,99611.06
2022-10-29T11:41:52.396Z,99606.00
2022-10-29T11:44:21.959Z,99598.97
2022-10-29T11:47:11.369Z,99585.44
2022-10-29T11:50:00.833Z,99585.84
2022-10-29T11:52:36.541Z,99572.03
2022-10-29T11:55:19.836Z,99580.50
2022-10-29T11:57:55.753Z,99576.25
2022-10-29T12:00:25.577Z,99573.28
2022-10-29T12:03:17.952Z,99579.94
2022-10-29T12:05:57.208Z,99578.38
2022-10-29T12:08:42.215Z,99574.00
2022-10-29T12:11:21.089Z,99569.88
2022-10-29T12:14:00.530Z,99558.47
2022-10-29T12:16:38.203Z,99546.69
2022-10-29T12:19:18.158Z,99554.31
2022-10-29T12:22:00.799Z,99554.19
2022-10-29T12:24:43.267Z,99557.69
2022-10-29T12:27:19.596Z,99547.66
2022-10-29T12:29:59.135Z,99540.59
2022-10-29T12:32:33.583Z,99542.19
2022-10-29T12:35:08.382Z,99537.91
2022-10-29T12:37:44.340Z,99535.13
2022-10-29T12:40:19.820Z,99543.03
2022-10-29T12:42:51.523Z,99540.81
2022-10-29T12:45:31.864Z,99542.66
2022-10-29T12:48:09.339Z,99547.03
2022-10-29T12:50:50.537Z,99540.50
2022-10-29T12:53:30.202Z,99535.44
2022-10-29T12:56:01.913Z,99530.91
2022-10-29T12:58:53.197Z,99536.84
2022-10-29T13:02:11.150Z,99530.91
2022-10-29T13:05:21.172Z,99529.34
2022-10-29T13:08:27.804Z,99537.13
2022-10-29T13:10:59.187Z,99527.78
2022-10-29T13:13:54.047Z,99529.34
2022-10-29T13:16:30.638Z,99527.94
2022-10-29T13:19:22.044Z,99525.94
2022-10-29T13:22:01.229Z,99521.84
2022-10-29T13:24:31.965Z,99525.06
2022-10-29T13:27:28.077Z,99517.44
2022-10-29T13:30:24.063Z,99520.69
2022-10-29T13:32:53.151Z,99526.72
2022-10-29T13:35:42.372Z,99519.94
2022-10-29T13:38:16.336Z,99520.63
2022-10-29T13:41:08.950Z,99513.84
2022-10-29T13:43:39.771Z,99519.25
2022-10-29T13:46:52.954Z,99516.56
2022-10-29T13:49:26.320Z,99507.78
2022-10-29T13:52:03.369Z,99504.81
2022-10-29T13:54:42.839Z,99499.41
2022-10-29T13:57:20.896Z,99499.72
2022-10-29T13:59:57.174Z,99498.25
2022-10-29T14:02:33.541Z,99489.84
2022-10-29T14:05:07.550Z,99499.13
2022-10-29T14:07:43.289Z,99501.41
2022-10-29T14:10:20.552Z,99500.25
2022-10-29T14:12:53.167Z,99495.03
2022-10-29T14:15:23.002Z,99488.78
2022-10-29T14:17:51.349Z,99490.34
2022-10-29T14:20:25.508Z,99487.66
2022-10-29T14:22:54.877Z,99485.41
2022-10-29T14:25:36.409Z,99484.38
2022-10-29T14:28:16.179Z,99481.50
2022-10-29T14:30:46.808Z,99480.97
2022-10-29T14:33:26.968Z,99481.34
2022-10-29T14:36:05.313Z,99480.81
2022-10-29T14:38:40.519Z,99484.13
2022-10-29T14:41:11.934Z,99486.41
2022-10-29T14:43:41.271Z,99486.41
2022-10-29T14:46:28.684Z,99478.22
2022-10-29T14:49:04.479Z,99480.94
2022-10-29T14:51:40.842Z,99475.13
2022-10-29T14:54:16.734Z,99487.44
2022-10-29T14:56:46.705Z,99493.53
2022-10-29T14:59:21.659Z,99494.09
2022-10-29T15:01:57.101Z,99498.31
2022-10-29T15:04:31.037Z,99499.34
2022-10-29T15:07:18.347Z,99483.22
2022-10-29T15:09:48.431Z,99472.47
2022-10-29T15:12:21.710Z,99473.34
2022-10-29T15:14:51.395Z,99478.16
2022-10-29T15:17:24.269Z,99476.13
2022-10-29T15:19:58.232Z,99469.44
2022-10-29T15:22:34.268Z,99481.94
2022-10-29T15:25:06.924Z,99485.66
2022-10-29T15:27:37.764Z,99482.56
2022-10-29T15:30:07.440Z,99481.41
2022-10-29T15:32:37.480Z,99489.56
2022-10-29T15:35:13.639Z,99488.91
2022-10-29T15:37:46.249Z,99485.38
2022-10-29T15:40:21.782Z,99485.53
2022-10-29T15:42:53.866Z,99484.00
2022-10-29T15:45:25.646Z,99481.47
2022-10-29T15:47:59.554Z,99483.00
2022-10-29T15:50:39.048Z,99477.91
2022-10-29T15:53:13.445Z,99482.00
2022-10-29T15:55:42.199Z,99478.91
2022-10-29T15:58:13.478Z,99486.25
2022-10-29T16:00:42.497Z,99475.22
2022-10-29T16:03:17.941Z,99486.91
2022-10-29T16:05:49.489Z,99482.38
2022-10-29T16:08:26.110Z,99487.19
2022-10-29T16:10:55.399Z,99484.78
2022-10-29T16:13:25.610Z,99493.63
2022-10-29T16:15:53.887Z,99490.22
2022-10-29T16:18:24.338Z,99489.44
2022-10-29T16:20:57.470Z,99493.06
2022-10-29T16:23:27.368Z,99489.25
2022-10-29T16:25:56.111Z,99483.38
2022-10-29T16:28:24.477Z,99483.19
2022-10-29T16:30:56.230Z,99486.88
2022-10-29T16:33:27.346Z,99488.47
2022-10-29T16:35:55.734Z,99496.50
2022-10-29T16:38:24.973Z,99494.06
2022-10-29T16:40:57.052Z,99491.97
2022-10-29T16:43:26.561Z,99505.88
2022-10-29T16:45:56.652Z,99500.66
2022-10-29T16:48:29.435Z,99496.88
2022-10-29T16:50:58.263Z,99498.69
2022-10-29T16:53:27.465Z,99498.84
2022-10-29T16:55:55.947Z,99499.56
2022-10-29T16:58:24.672Z,99503.63
2022-10-29T17:00:53.570Z,99495.53
2022-10-29T17:03:22.042Z,99501.41
2022-10-29T17:05:56.939Z,99497.47
2022-10-29T17:08:25.574Z,99501.13
2022-10-29T17:11:00.471Z,99508.66
2022-10-29T17:13:30.051Z,99507.59
2022-10-29T17:15:58.474Z,99504.53
2022-10-29T17:18:26.966Z,99503.53
2022-10-29T17:21:02.080Z,99501.63
2022-10-29T17:23:32.159Z,99505.06
2022-10-29T17:26:01.298Z,99499.47
2022-10-29T17:28:30.703Z,99504.81
2022-10-29T17:30:58.862Z,99503.81
2022-10-29T17:33:27.600Z,99500.34
2022-10-29T17:36:04.254Z,99501.47
2022-10-29T17:38:35.043Z,99509.19
2022-10-29T17:41:04.213Z,99507.69
2022-10-29T17:43:35.174Z,99508.19
2022-10-29T17:46:03.652Z,99512.31
2022-10-29T17:48:32.383Z,99507.13
2022-10-29T17:51:04.893Z,99498.31
2022-10-29T17:53:33.563Z,99504.91
2022-10-29T17:56:02.926Z,99510.16
2022-10-29T17:58:32.138Z,99509.91
2022-10-29T18:01:05.366Z,99514.72
2022-10-29T18:03:33.838Z,99508.53
2022-10-29T18:06:05.377Z,99506.06
2022-10-29T18:08:34.330Z,99512.28
2022-10-29T18:11:09.398Z,99506.44
2022-10-29T18:13:43.832Z,99508.00
2022-10-29T18:16:13.958Z,99500.72
2022-10-29T18:18:54.781Z,99505.19
2022-10-29T18:21:32.863Z,99498.28
2022-10-29T18:24:03.338Z,99500.59
2022-10-29T18:26:36.069Z,99503.44
2022-10-29T18:29:08.458Z,99506.22
2022-10-29T18:31:38.353Z,99499.91
2022-10-29T18:34:08.252Z,99505.25
2022-10-29T18:36:39.967Z,99514.75
2022-10-29T18:39:08.654Z,99514.59
2022-10-29T18:41:37.629Z,99514.09
2022-10-29T18:44:06.711Z,99509.38
2022-10-29T18:46:38.003Z,99507.31
2022-10-29T18:49:07.841Z,99510.25
2022-10-29T18:51:38.450Z,99505.34
2022-10-29T18:54:12.052Z,99505.34
2022-10-29T18:56:41.050Z,99503.66
2022-10-29T18:59:12.959Z,99502.91
2022-10-29T19:01:42.099Z,99501.03
2022-10-29T19:04:15.801Z,99503.28
2022-10-29T19:06:47.451Z,99499.88
2022-10-29T19:09:16.903Z,99507.66
2022-10-29T19:11:45.908Z,99502.88
2022-10-29T19:14:15.823Z,99508.81
2022-10-29T19:16:45.583Z,99507.25
2022-10-29T19:19:17.213Z,99510.50
2022-10-29T19:21:50.038Z,99497.31
2022-10-29T19:24:19.256Z,99499.38
2022-10-29T19:26:49.286Z,99508.50
2022-10-29T19:29:18.061Z,99507.50
2022-10-29T19:31:46.932Z,99504.00
2022-10-29T19:34:15.398Z,99498.47
2022-10-29T19:36:43.916Z,99501.50
2022-10-29T19:39:14.663Z,99504.84
2022-10-29T19:41:43.213Z,99506.28
2022-10-29T19:44:11.725Z,99499.50
2022-10-29T19:46:40.257Z,99513.09
2022-10-29T19:49:08.963Z,99510.91
2022-10-29T19:51:38.098Z,99512.97
2022-10-29T19:54:09.814Z,99511.34
2022-10-29T19:56:39.973Z,99506.50
2022-10-29T19:59:15.298Z,99511.88
2022-10-29T20:01:44.619Z,99517.16
2022-10-29T20:04:13.323Z,99510.97
2022-10-29T20:06:41.775Z,99514.75
2022-10-29T20:09:10.508Z,99520.22
2022-10-29T20:11:40.900Z,99525.63
2022-10-29T20:14:09.074Z,99536.25
2022-10-29T20:16:37.502Z,99532.16
2022-10-29T20:19:08.941Z,99532.50
2022-10-29T20:21:40.301Z,99527.16
2022-10-29T20:24:09.876Z,99525.53
2022-10-29T20:26:39.498Z,99520.50
2022-10-29T20:29:08.175Z,99516.13
2022-10-29T20:31:41.149Z,99519.94
2022-10-29T20:34:12.333Z,99519.94
2022-10-29T20:36:43.220Z,99512.09
2022-10-29T20:39:14.658Z,99514.31
2022-10-29T20:41:45.456Z,99515.66
2022-10-29T20:44:14.020Z,99518.31
2022-10-29T20:46:43.931Z,99513.50
2022-10-29T20:49:12.687Z,99519.88
2022-10-29T20:51:41.830Z,99509.84
2022-10-29T20:54:10.468Z,99522.22
2022-10-29T20:56:39.583Z,99516.47
2022-10-29T20:59:09.771Z,99509.91
2022-10-29T21:01:38.272Z,99515.16
2022-10-29T21:04:08.812Z,99517.59
2022-10-29T21:06:37.190Z,99515.88
2022-10-29T21:09:07.518Z,99519.13
2022-10-29T21:11:35.956Z,99519.59
2022-10-29T21:14:06.260Z,99520.66
2022-10-29T21:16:36.363Z,99516.88
2022-10-29T21:19:07.451Z,99519.03
2022-10-29T21:21:37.407Z,99518.44
2022-10-29T21:24:06.147Z,99511.28
2022-10-29T21:26:34.723Z,99519.88
2022-10-29T21:29:04.255Z,99517.88
2022-10-29T21:31:32.736Z,99505.84
2022-10-29T21:34:03.590Z,99511.06
2022-10-29T21:36:31.989Z,99521.00
2022-10-29T21:39:00.716Z,99515.56
2022-10-29T21:41:29.195Z,99505.28
2022-10-29T21:43:59.177Z,99512.69
2022-10-29T21:46:27.574Z,99512.41
2022-10-29T21:48:59.582Z,99510.50
2022-10-29T21:51:29.395Z,99516.81
2022-10-29T21:53:58.218Z,99495.81
2022-10-29T21:56:26.435Z,99502.47
2022-10-29T21:58:54.983Z,99504.53
2022-10-29T22:01:24.673Z,99498.34
2022-10-29T22:03:53.271Z,99507.66
2022-10-29T22:06:23.523Z,99506.19
2022-10-29T22:08:58.183Z,99503.81
2022-10-29T22:11:27.683Z,99499.78
2022-10-29T22:13:56.616Z,99502.50
2022-10-29T22:16:25.412Z,99503.69
2022-10-29T22:18:54.363Z,99502.34
2022-10-29T22:21:24.330Z,99493.63
2022-10-29T22:23:57.247Z,99500.53
2022-10-29T22:26:28.234Z,99503.00
2022-10-29T22:28:57.103Z,99500.19
2022-10-29T22:31:28.485Z,99493.97
2022-10-29T22:34:00.375Z,99491.22
2022-10-29T22:36:30.903Z,99495.72
2022-10-29T22:39:02.016Z,99494.34
2022-10-29T22:41:31.481Z,99495.59
2022-10-29T22:44:00.580Z,99495.06
2022-10-29T22:46:31.316Z,99492.91
2022-10-29T22:49:04.029Z,99497.72
2022-10-29T22:51:35.834Z,99490.41
2022-10-29T22:54:08.048Z,99490.81
2022-10-29T22:56:39.250Z,99495.06
2022-10-29T22:59:08.246Z,99495.38
2022-10-29T23:01:42.373Z,99507.22
2022-10-29T23:04:17.178Z,99513.97
2022-10-29T23:06:48.095Z,99513.34
2022-10-29T23:09:18.660Z,99514.91
2022-10-29T23:11:47.288Z,99515.53
2022-10-29T23:14:15.747Z,99514.03
2022-10-29T23:16:44.379Z,99512.75
2022-10-29T23:19:13.516Z,99511.00
2022-10-29T23:21:42.015Z,99502.16
2022-10-29T23:24:11.329Z,99511.34
2022-10-29T23:26:40.924Z,99519.09
2022-10-29T23:29:09.152Z,99514.41
2022-10-29T23:31:37.550Z,99519.00
2022-10-29T23:34:06.241Z,99530.78
2022-10-29T23:36:35.474Z,99523.22
2022-10-29T23:39:03.758Z,99521.59
2022-10-29T23:41:33.275Z,99522.72
2022-10-29T23:44:05.318Z,99519.16
2022-10-29T23:46:35.129Z,99516.88
2022-10-29T23:49:03.417Z,99513.41
2022-10-29T23:54:01.847Z,99509.59
2022-10-29T23:56:31.016Z,99490.34
2022-10-29T23:58:59.406Z,99494.72
